createdAt,value
2017-09-21T00:01:42.144Z,38.23
2017-09-21T00:04:08.910Z,38.80
2017-09-21T00:06:35.686Z,37.20
2017-09-21T00:09:02.493Z,45.23
2017-09-21T00:11:29.262Z,47.73
2017-09-21T00:13:56.320Z,38.10
2017-09-21T00:16:23.295Z,35.47
2017-09-21T00:18:50.072Z,41.57
2017-09-21T00:21:16.834Z,36.37
2017-09-21T00:23:43.930Z,41.80
2017-09-21T00:26:10.679Z,42.27
2017-09-21T00:28:37.421Z,40.57
2017-09-21T00:31:04.222Z,39.67
2017-09-21T00:33:31.020Z,40.80
2017-09-21T00:35:57.773Z,36.33
2017-09-21T00:38:24.586Z,37.03
2017-09-21T00:40:51.360Z,41.77
2017-09-21T00:43:18.121Z,43.43
2017-09-21T00:45:44.928Z,40.70
2017-09-21T00:48:11.696Z,37.10
2017-09-21T00:50:38.757Z,37.97
2017-09-21T00:53:05.569Z,35.50
2017-09-21T00:55:32.371Z,39.90
2017-09-21T00:57:59.127Z,37.63
2017-09-21T01:00:25.930Z,37.40
2017-09-21T01:02:52.699Z,42.03
2017-09-21T01:05:19.455Z,35.57
2017-09-21T01:07:46.266Z,43.93
2017-09-21T01:10:13.020Z,35.90
2017-09-21T01:12:39.803Z,43.40
2017-09-21T01:15:06.941Z,38.63
2017-09-21T01:17:33.724Z,38.50
2017-09-21T01:20:00.503Z,40.97
2017-09-21T01:22:27.334Z,38.40
2017-09-21T01:24:54.814Z,33.73
2017-09-21T01:27:21.673Z,42.40
2017-09-21T01:29:48.475Z,35.27
2017-09-21T01:32:15.295Z,38.63
2017-09-21T01:34:42.085Z,35.87
2017-09-21T01:37:08.887Z,38.70
2017-09-21T01:39:35.657Z,41.20
2017-09-21T01:42:02.472Z,42.63
2017-09-21T01:44:29.306Z,38.83
2017-09-21T01:46:56.093Z,38.67
2017-09-21T01:49:22.864Z,37.17
2017-09-21T01:51:49.694Z,36.80
2017-09-21T01:54:17.090Z,33.83
2017-09-21T01:56:43.862Z,40.67
2017-09-21T01:59:10.683Z,41.37
2017-09-21T02:01:37.466Z,41.20
2017-09-21T02:04:04.261Z,47.13
2017-09-21T02:06:31.093Z,43.13
2017-09-21T02:08:57.873Z,52.70
2017-09-21T02:11:24.660Z,40.87
2017-09-21T02:13:51.450Z,39.80
2017-09-21T02:16:18.941Z,44.53
2017-09-21T02:18:45.692Z,43.87
2017-09-21T02:21:12.516Z,46.63
2017-09-21T02:23:39.305Z,46.33
2017-09-21T02:26:06.796Z,50.40
2017-09-21T02:28:33.818Z,45.17
2017-09-21T02:31:00.580Z,43.03
2017-09-21T02:33:27.356Z,44.53
2017-09-21T02:35:54.139Z,44.17
2017-09-21T02:38:21.111Z,46.40
2017-09-21T02:40:48.635Z,49.90
2017-09-21T02:43:15.448Z,43.00
2017-09-21T02:45:42.203Z,43.80
2017-09-21T02:48:08.956Z,43.27
2017-09-21T02:50:35.763Z,40.10
2017-09-21T02:53:02.515Z,47.43
2017-09-21T02:55:29.265Z,42.70
2017-09-21T02:57:56.062Z,48.07
2017-09-21T03:00:22.815Z,45.17
2017-09-21T03:02:49.577Z,46.10
2017-09-21T03:05:16.360Z,45.73
2017-09-21T03:07:43.132Z,45.50
2017-09-21T03:10:09.879Z,49.73
2017-09-21T03:12:36.691Z,52.77
2017-09-21T03:15:03.439Z,41.50
2017-09-21T03:17:30.188Z,45.80
2017-09-21T03:19:56.967Z,49.63
2017-09-21T03:22:23.757Z,47.13
2017-09-21T03:24:50.510Z,45.00
2017-09-21T03:27:17.326Z,42.43
2017-09-21T03:29:44.083Z,41.60
2017-09-21T03:32:10.847Z,42.07
2017-09-21T03:34:37.646Z,44.13
2017-09-21T03:37:04.398Z,43.33
2017-09-21T03:39:31.151Z,40.70
2017-09-21T03:41:57.955Z,43.20
2017-09-21T03:44:24.928Z,41.80
2017-09-21T03:46:51.727Z,46.17
2017-09-21T03:49:18.540Z,43.83
2017-09-21T03:51:45.289Z,41.80
2017-09-21T03:54:12.054Z,44.10
2017-09-21T03:56:38.861Z,47.37
2017-09-21T03:59:05.663Z,44.13
2017-09-21T04:01:32.427Z,43.87
2017-09-21T04:03:59.212Z,49.57
2017-09-21T04:06:25.957Z,43.70
2017-09-21T04:08:52.730Z,46.47
2017-09-21T04:11:19.590Z,48.57
2017-09-21T04:13:46.442Z,50.17
2017-09-21T04:16:13.415Z,63.90
2017-09-21T04:18:40.258Z,50.60
2017-09-21T04:21:07.037Z,50.17
2017-09-21T04:23:33.828Z,47.27
2017-09-21T04:26:00.638Z,57.80
2017-09-21T04:28:27.416Z,48.97
2017-09-21T04:30:54.190Z,51.37
2017-09-21T04:33:21.011Z,57.33
2017-09-21T04:35:47.776Z,51.87
2017-09-21T04:38:15.202Z,55.60
2017-09-21T04:40:42.036Z,56.37
2017-09-21T04:43:08.809Z,56.27
2017-09-21T04:45:35.630Z,54.30
2017-09-21T04:48:02.421Z,61.13
2017-09-21T04:50:29.191Z,59.70
2017-09-21T04:52:55.962Z,54.67
2017-09-21T04:55:23.368Z,59.53
2017-09-21T04:57:50.121Z,51.50
2017-09-21T05:00:16.987Z,59.47
2017-09-21T05:02:43.797Z,53.37
2017-09-21T05:05:10.603Z,53.60
2017-09-21T05:07:37.402Z,55.17
2017-09-21T05:10:04.201Z,57.20
2017-09-21T05:12:30.961Z,69.17
2017-09-21T05:14:57.713Z,63.27
2017-09-21T05:17:24.503Z,64.07
2017-09-21T05:19:51.305Z,64.67
2017-09-21T05:22:18.865Z,66.60
2017-09-21T05:24:45.669Z,69.20
2017-09-21T05:27:12.424Z,64.33
2017-09-21T05:29:39.186Z,61.10
2017-09-21T05:32:05.964Z,60.03
2017-09-21T05:34:32.746Z,71.40
2017-09-21T05:36:59.858Z,68.67
2017-09-21T05:39:27.233Z,72.83
2017-09-21T05:41:54.477Z,67.17
2017-09-21T05:44:21.990Z,66.00
2017-09-21T05:46:48.784Z,70.60
2017-09-21T05:49:15.531Z,65.13
2017-09-21T05:51:42.301Z,66.87
2017-09-21T05:54:09.575Z,58.27
2017-09-21T05:56:36.320Z,61.47
2017-09-21T05:59:03.096Z,69.13
2017-09-21T06:01:29.895Z,60.20
2017-09-21T06:03:56.647Z,62.00
2017-09-21T06:06:23.392Z,68.30
2017-09-21T06:08:50.183Z,57.60
2017-09-21T06:11:16.946Z,61.20
2017-09-21T06:13:44.613Z,65.10
2017-09-21T06:16:11.427Z,59.53
2017-09-21T06:18:38.175Z,59.20
2017-09-21T06:21:05.809Z,59.50
2017-09-21T06:23:32.597Z,57.70
2017-09-21T06:26:00.166Z,66.93
2017-09-21T06:28:26.919Z,62.03
2017-09-21T06:30:53.734Z,64.30
2017-09-21T06:33:20.501Z,61.37
2017-09-21T06:35:47.254Z,59.27
2017-09-21T06:38:14.111Z,55.10
2017-09-21T06:40:40.889Z,59.03
2017-09-21T06:43:07.659Z,54.00
2017-09-21T06:45:34.458Z,56.00
2017-09-21T06:48:01.237Z,63.97
2017-09-21T06:50:28.004Z,60.57
2017-09-21T06:52:54.807Z,56.77
2017-09-21T06:55:21.585Z,56.53
2017-09-21T06:57:48.354Z,57.03
2017-09-21T07:00:15.148Z,66.07
2017-09-21T07:02:41.908Z,58.20
2017-09-21T07:05:08.674Z,59.73
2017-09-21T07:07:35.771Z,55.57
2017-09-21T07:10:02.577Z,55.37
2017-09-21T07:12:29.550Z,53.43
2017-09-21T07:14:56.354Z,58.87
2017-09-21T07:17:23.105Z,54.20
2017-09-21T07:19:49.864Z,54.27
2017-09-21T07:22:16.670Z,70.33
2017-09-21T07:24:43.417Z,58.27
2017-09-21T07:27:10.167Z,54.73
2017-09-21T07:29:36.955Z,55.47
2017-09-21T07:32:03.741Z,49.67
2017-09-21T07:34:30.510Z,53.57
2017-09-21T07:36:57.297Z,47.50
2017-09-21T07:39:24.052Z,52.90
2017-09-21T07:41:50.813Z,50.93
2017-09-21T07:44:17.604Z,68.03
2017-09-21T07:46:44.379Z,51.53
2017-09-21T07:49:11.202Z,48.13
2017-09-21T07:51:38.038Z,50.63
2017-09-21T07:54:04.836Z,59.93
2017-09-21T07:56:31.608Z,53.03
2017-09-21T07:58:59.079Z,50.70
2017-09-21T08:01:25.862Z,49.17
2017-09-21T08:03:52.615Z,53.27
2017-09-21T08:06:19.429Z,45.70
2017-09-21T08:08:46.190Z,51.30
2017-09-21T08:11:12.937Z,49.70
2017-09-21T08:13:39.753Z,50.57
2017-09-21T08:16:06.541Z,53.53
2017-09-21T08:18:33.670Z,53.30
2017-09-21T08:21:00.482Z,52.07
2017-09-21T08:23:27.977Z,55.97
2017-09-21T08:25:54.766Z,51.00
2017-09-21T08:28:21.560Z,52.20
2017-09-21T08:30:48.311Z,51.57
2017-09-21T08:33:15.063Z,53.03
2017-09-21T08:35:41.871Z,65.00
2017-09-21T08:38:08.657Z,54.50
2017-09-21T08:40:35.438Z,42.70
2017-09-21T08:43:02.249Z,53.57
2017-09-21T08:45:29.079Z,52.30
2017-09-21T08:47:56.046Z,55.83
2017-09-21T08:50:22.825Z,47.53
2017-09-21T08:52:49.570Z,45.77
2017-09-21T08:55:16.338Z,45.07
2017-09-21T08:57:43.153Z,43.30
2017-09-21T09:00:09.919Z,39.17
2017-09-21T09:02:36.696Z,45.33
2017-09-21T09:05:03.480Z,42.00
2017-09-21T09:07:30.231Z,44.10
2017-09-21T09:09:56.992Z,40.87
2017-09-21T09:12:23.776Z,41.97
2017-09-21T09:14:50.526Z,47.63
2017-09-21T09:17:17.300Z,40.37
2017-09-21T09:19:44.103Z,50.40
2017-09-21T09:22:10.870Z,39.63
2017-09-21T09:24:37.623Z,43.13
2017-09-21T09:27:04.432Z,50.00
2017-09-21T09:29:31.187Z,44.50
2017-09-21T09:31:57.988Z,40.27
2017-09-21T09:34:25.580Z,42.70
2017-09-21T09:36:52.332Z,39.83
2017-09-21T09:39:19.110Z,38.50
2017-09-21T09:41:46.010Z,38.93
2017-09-21T09:44:13.028Z,37.43
2017-09-21T09:46:39.779Z,35.30
2017-09-21T09:49:06.849Z,36.80
2017-09-21T09:51:33.629Z,33.70
2017-09-21T09:54:00.394Z,33.03
2017-09-21T09:56:27.191Z,37.53
2017-09-21T09:58:53.950Z,35.57
2017-09-21T10:01:20.692Z,39.27
2017-09-21T10:03:47.498Z,34.00
2017-09-21T10:06:14.262Z,27.80
2017-09-21T10:08:41.025Z,27.10
2017-09-21T10:11:07.830Z,31.67
2017-09-21T10:13:34.620Z,34.80
2017-09-21T10:16:01.380Z,33.80
2017-09-21T10:18:28.191Z,31.87
2017-09-21T10:20:55.018Z,33.57
2017-09-21T10:23:22.687Z,33.70
2017-09-21T10:25:49.468Z,33.63
2017-09-21T10:28:16.217Z,30.60
2017-09-21T10:30:42.967Z,32.87
2017-09-21T10:33:09.766Z,30.70
2017-09-21T10:35:36.516Z,31.77
2017-09-21T10:38:03.290Z,41.73
2017-09-21T10:40:30.107Z,32.13
2017-09-21T10:42:56.871Z,30.90
2017-09-21T10:45:23.621Z,29.90
2017-09-21T10:47:50.408Z,34.20
2017-09-21T10:50:17.167Z,29.60
2017-09-21T10:52:43.923Z,28.40
2017-09-21T10:55:11.287Z,27.83
2017-09-21T10:57:38.044Z,33.33
2017-09-21T11:00:04.826Z,23.43
2017-09-21T11:02:31.619Z,26.43
2017-09-21T11:04:58.562Z,21.77
2017-09-21T11:07:25.307Z,25.70
2017-09-21T11:09:52.097Z,22.77
2017-09-21T11:12:18.878Z,24.70
2017-09-21T11:14:45.647Z,20.90
2017-09-21T11:17:12.448Z,19.10
2017-09-21T11:19:39.362Z,22.70
2017-09-21T11:22:06.151Z,17.80
2017-09-21T11:24:32.962Z,16.67
2017-09-21T11:26:59.699Z,11.10
2017-09-21T11:29:26.514Z,16.47
2017-09-21T11:31:53.307Z,20.47
2017-09-21T11:34:20.141Z,12.27
2017-09-21T11:36:46.935Z,12.90
2017-09-21T11:39:13.771Z,13.53
2017-09-21T11:41:40.528Z,18.27
2017-09-21T11:44:07.584Z,17.27
2017-09-21T11:46:34.655Z,15.70
2017-09-21T11:49:01.706Z,15.17
2017-09-21T11:51:28.507Z,17.73
2017-09-21T11:53:55.299Z,19.40
2017-09-21T11:56:22.249Z,16.70
2017-09-21T11:58:49.020Z,16.60
2017-09-21T12:01:15.864Z,19.30
2017-09-21T12:03:42.646Z,23.70
2017-09-21T12:06:09.415Z,20.57
2017-09-21T12:08:36.229Z,23.27
2017-09-21T12:11:02.980Z,18.23
2017-09-21T12:13:29.732Z,17.70
2017-09-21T12:15:56.529Z,16.90
2017-09-21T12:18:23.285Z,19.53
2017-09-21T12:20:50.028Z,17.37
2017-09-21T12:23:16.816Z,19.50
2017-09-21T12:25:43.567Z,14.13
2017-09-21T12:28:10.343Z,12.97
2017-09-21T12:30:37.180Z,16.60
2017-09-21T12:33:03.982Z,14.93
2017-09-21T12:35:30.747Z,14.00
2017-09-21T12:37:57.563Z,13.53
2017-09-21T12:40:24.339Z,15.40
2017-09-21T12:42:51.094Z,10.67
2017-09-21T12:45:17.903Z,9.47
2017-09-21T12:47:44.677Z,10.10
2017-09-21T12:50:12.071Z,9.90
2017-09-21T12:52:38.865Z,10.60
2017-09-21T12:55:05.638Z,8.33
2017-09-21T12:57:32.407Z,9.90
2017-09-21T12:59:59.205Z,6.83
2017-09-21T13:02:25.959Z,5.27
2017-09-21T13:04:52.730Z,5.83
2017-09-21T13:07:19.525Z,7.33
2017-09-21T13:09:46.284Z,6.53
2017-09-21T13:12:13.020Z,5.60
2017-09-21T13:14:39.818Z,8.00
2017-09-21T13:17:06.567Z,5.93
2017-09-21T13:19:33.315Z,7.50
2017-09-21T13:22:00.116Z,6.77
2017-09-21T13:24:27.592Z,6.87
2017-09-21T13:26:54.386Z,6.70
2017-09-21T13:29:21.206Z,9.57
2017-09-21T13:31:48.008Z,9.23
2017-09-21T13:34:14.754Z,12.10
2017-09-21T13:36:41.527Z,7.57
2017-09-21T13:39:08.262Z,7.30
2017-09-21T13:41:34.998Z,10.60
2017-09-21T13:44:01.780Z,7.50
2017-09-21T13:46:28.540Z,6.70
2017-09-21T13:48:55.327Z,8.57
2017-09-21T13:51:22.123Z,8.03
2017-09-21T13:53:48.899Z,7.63
2017-09-21T13:56:15.661Z,8.10
2017-09-21T13:58:42.435Z,9.23
2017-09-21T14:01:09.269Z,11.93
2017-09-21T14:03:36.019Z,10.30
2017-09-21T14:06:02.799Z,9.87
2017-09-21T14:08:29.551Z,9.30
2017-09-21T14:10:56.296Z,11.40
2017-09-21T14:13:23.101Z,8.90
2017-09-21T14:15:49.905Z,12.07
2017-09-21T14:18:16.688Z,10.87
2017-09-21T14:20:43.507Z,13.10
2017-09-21T14:23:10.290Z,16.40
2017-09-21T14:25:37.672Z,20.93
2017-09-21T14:28:05.193Z,13.90
2017-09-21T14:30:31.954Z,16.93
2017-09-21T14:32:58.721Z,13.80
2017-09-21T14:35:25.546Z,14.00
2017-09-21T14:37:52.470Z,18.10
2017-09-21T14:40:19.228Z,16.87
2017-09-21T14:42:46.043Z,22.90
2017-09-21T14:45:12.811Z,19.33
2017-09-21T14:47:39.585Z,18.57
2017-09-21T14:50:06.647Z,20.07
2017-09-21T14:52:34.142Z,24.13
2017-09-21T14:55:00.892Z,28.20
2017-09-21T14:57:27.684Z,34.03
2017-09-21T14:59:54.462Z,27.77
2017-09-21T15:02:21.242Z,29.10
2017-09-21T15:04:48.035Z,27.20
2017-09-21T15:07:14.871Z,27.70
2017-09-21T15:09:41.845Z,32.83
2017-09-21T15:12:08.721Z,26.10
2017-09-21T15:14:36.076Z,35.70
2017-09-21T15:17:02.842Z,30.47
2017-09-21T15:19:30.361Z,29.83
2017-09-21T15:21:57.121Z,32.43
2017-09-21T15:24:23.898Z,27.93
2017-09-21T15:26:51.129Z,33.87
2017-09-21T15:29:17.885Z,27.37
2017-09-21T15:31:44.664Z,27.83
2017-09-21T15:34:11.766Z,32.40
2017-09-21T15:36:39.122Z,30.23
2017-09-21T15:39:05.868Z,25.70
2017-09-21T15:41:32.683Z,25.57
2017-09-21T15:43:59.473Z,21.27
2017-09-21T15:46:26.313Z,29.83
2017-09-21T15:48:53.142Z,33.07
2017-09-21T15:51:19.914Z,26.57
2017-09-21T15:53:47.076Z,25.53
2017-09-21T15:56:13.949Z,26.17
2017-09-21T15:58:40.720Z,24.20
2017-09-21T16:01:07.473Z,27.10
2017-09-21T16:03:34.564Z,25.47
2017-09-21T16:06:02.132Z,24.90
2017-09-21T16:08:28.933Z,26.60
2017-09-21T16:10:55.770Z,27.33
2017-09-21T16:13:22.559Z,27.80
2017-09-21T16:15:49.392Z,26.33
2017-09-21T16:18:16.220Z,25.33
2017-09-21T16:20:42.978Z,21.90
2017-09-21T16:23:09.744Z,23.30
2017-09-21T16:25:36.525Z,19.53
2017-09-21T16:28:03.288Z,19.33
2017-09-21T16:30:30.036Z,21.00
2017-09-21T16:32:56.849Z,24.30
2017-09-21T16:35:23.600Z,27.30
2017-09-21T16:37:50.357Z,18.10
2017-09-21T16:40:17.908Z,22.07
2017-09-21T16:42:44.692Z,24.10
2017-09-21T16:45:11.464Z,24.33
2017-09-21T16:47:38.320Z,22.53
2017-09-21T16:50:05.064Z,22.03
2017-09-21T16:52:31.820Z,23.63
2017-09-21T16:54:58.629Z,18.40
2017-09-21T16:57:25.456Z,26.03
2017-09-21T16:59:52.259Z,27.10
2017-09-21T17:02:19.083Z,21.97
2017-09-21T17:04:45.851Z,18.40
2017-09-21T17:07:12.716Z,19.10
2017-09-21T17:09:39.583Z,18.50
2017-09-21T17:12:06.331Z,20.73
2017-09-21T17:14:33.102Z,19.20
2017-09-21T17:16:59.919Z,18.43
2017-09-21T17:19:26.700Z,23.43
2017-09-21T17:21:53.505Z,18.80
2017-09-21T17:24:20.300Z,21.57
2017-09-21T17:26:47.073Z,19.27
2017-09-21T17:29:13.854Z,22.27
2017-09-21T17:31:40.713Z,22.00
2017-09-21T17:34:07.511Z,18.80
2017-09-21T17:36:34.285Z,23.90
2017-09-21T17:39:01.099Z,26.03
2017-09-21T17:41:27.855Z,20.97
2017-09-21T17:43:54.626Z,22.17
2017-09-21T17:46:21.412Z,21.47
2017-09-21T17:48:48.168Z,21.57
2017-09-21T17:51:14.942Z,20.90
2017-09-21T17:53:41.812Z,19.33
2017-09-21T17:56:09.669Z,20.87
2017-09-21T17:58:36.996Z,31.77
2017-09-21T18:01:03.808Z,22.90
2017-09-21T18:03:30.566Z,23.37
2017-09-21T18:05:57.319Z,26.00
2017-09-21T18:08:24.365Z,22.93
2017-09-21T18:10:51.335Z,20.93
2017-09-21T18:13:18.083Z,22.73
2017-09-21T18:15:44.890Z,26.73
2017-09-21T18:18:11.653Z,23.27
2017-09-21T18:20:38.418Z,26.73
2017-09-21T18:23:05.247Z,23.27
2017-09-21T18:25:32.014Z,27.80
2017-09-21T18:27:58.793Z,25.90
2017-09-21T18:30:25.628Z,25.73
2017-09-21T18:32:52.426Z,25.57
2017-09-21T18:35:19.189Z,31.43
2017-09-21T18:37:46.007Z,34.03
2017-09-21T18:40:12.813Z,23.97
2017-09-21T18:42:39.582Z,29.20
2017-09-21T18:45:06.384Z,27.60
2017-09-21T18:47:33.304Z,27.67
2017-09-21T18:50:00.106Z,33.43
2017-09-21T18:52:27.113Z,28.50
2017-09-21T18:54:53.887Z,27.87
2017-09-21T18:57:20.634Z,34.03
2017-09-21T18:59:47.475Z,27.23
2017-09-21T19:02:14.240Z,28.73
2017-09-21T19:04:40.996Z,28.60
2017-09-21T19:07:07.830Z,30.13
2017-09-21T19:09:34.619Z,26.70
2017-09-21T19:12:01.387Z,31.97
2017-09-21T19:14:28.271Z,26.00
2017-09-21T19:16:55.071Z,26.07
2017-09-21T19:19:21.824Z,27.00
2017-09-21T19:21:48.679Z,30.63
2017-09-21T19:24:15.492Z,25.93
2017-09-21T19:26:43.108Z,23.57
2017-09-21T19:29:09.896Z,27.50
2017-09-21T19:31:36.686Z,29.53
2017-09-21T19:34:03.476Z,31.77
2017-09-21T19:36:30.347Z,37.53
2017-09-21T19:38:57.156Z,30.47
2017-09-21T19:41:23.951Z,35.23
2017-09-21T19:43:50.739Z,33.60
2017-09-21T19:46:17.488Z,34.77
2017-09-21T19:48:44.245Z,38.50
2017-09-21T19:51:11.044Z,28.40
2017-09-21T19:53:37.907Z,35.93
2017-09-21T19:56:04.694Z,31.80
2017-09-21T19:58:32.338Z,41.60
2017-09-21T20:00:59.679Z,32.20
2017-09-21T20:03:26.564Z,29.63
2017-09-21T20:05:53.437Z,29.53
2017-09-21T20:08:20.212Z,40.43
2017-09-21T20:10:47.605Z,33.17
2017-09-21T20:13:14.383Z,36.83
2017-09-21T20:15:41.218Z,36.33
2017-09-21T20:18:08.133Z,39.00
2017-09-21T20:20:34.958Z,34.73
2017-09-21T20:23:02.343Z,38.13
2017-09-21T20:25:29.148Z,38.40
2017-09-21T20:27:55.970Z,36.00
2017-09-21T20:30:22.888Z,36.10
2017-09-21T20:32:49.666Z,40.57
2017-09-21T20:35:16.687Z,37.50
2017-09-21T20:37:43.467Z,33.90
2017-09-21T20:40:10.245Z,39.00
2017-09-21T20:42:37.074Z,38.67
2017-09-21T20:45:04.213Z,35.70
2017-09-21T20:47:30.986Z,36.30
2017-09-21T20:49:57.774Z,40.50
2017-09-21T20:52:24.539Z,31.90
2017-09-21T20:54:51.340Z,44.70
2017-09-21T20:57:18.634Z,41.77
2017-09-21T20:59:45.377Z,32.83
2017-09-21T21:02:12.131Z,57.37
2017-09-21T21:04:38.922Z,28.60
2017-09-21T21:07:06.164Z,35.93
2017-09-21T21:09:32.933Z,36.40
2017-09-21T21:11:59.734Z,31.70
2017-09-21T21:14:26.594Z,35.33
2017-09-21T21:16:53.351Z,41.27
2017-09-21T21:19:20.139Z,33.70
2017-09-21T21:21:46.910Z,36.17
2017-09-21T21:24:13.665Z,33.33
2017-09-21T21:26:40.539Z,39.17
2017-09-21T21:29:07.344Z,31.97
2017-09-21T21:31:34.126Z,36.13
2017-09-21T21:34:00.991Z,41.60
2017-09-21T21:36:27.809Z,37.40
2017-09-21T21:38:54.638Z,32.67
2017-09-21T21:41:21.423Z,34.43
2017-09-21T21:43:48.223Z,35.50
2017-09-21T21:46:15.042Z,34.33
2017-09-21T21:48:41.835Z,44.47
2017-09-21T21:51:08.600Z,41.70
2017-09-21T21:53:35.369Z,36.17
2017-09-21T21:56:02.155Z,30.00
2017-09-21T21:58:28.923Z,38.07
2017-09-21T22:00:57.541Z,37.77
2017-09-21T22:03:24.341Z,32.87
2017-09-21T22:05:51.103Z,28.00
2017-09-21T22:08:17.877Z,32.93
2017-09-21T22:10:44.666Z,35.30
2017-09-21T22:13:11.432Z,32.20
2017-09-21T22:15:38.197Z,29.47
2017-09-21T22:18:04.988Z,31.43
2017-09-21T22:20:31.750Z,30.83
2017-09-21T22:22:58.510Z,41.33
2017-09-21T22:25:25.314Z,40.20
2017-09-21T22:27:52.190Z,38.33
2017-09-21T22:30:19.718Z,37.37
2017-09-21T22:32:46.503Z,36.63
2017-09-21T22:35:13.259Z,38.80
2017-09-21T22:37:40.024Z,38.77
2017-09-21T22:40:06.839Z,40.67
2017-09-21T22:42:33.595Z,34.27
2017-09-21T22:45:00.353Z,33.97
2017-09-21T22:47:27.154Z,35.80
2017-09-21T22:49:53.917Z,30.70
2017-09-21T22:52:20.699Z,35.57
2017-09-21T22:54:47.479Z,34.73
2017-09-21T22:57:14.422Z,30.03
2017-09-21T22:59:41.878Z,36.40
2017-09-21T23:02:08.659Z,32.90
2017-09-21T23:04:35.418Z,41.50
2017-09-21T23:07:02.210Z,37.30
2017-09-21T23:09:28.993Z,39.40
2017-09-21T23:11:55.837Z,33.90
2017-09-21T23:14:22.607Z,44.17
2017-09-21T23:16:49.421Z,36.27
2017-09-21T23:19:16.182Z,35.70
2017-09-21T23:21:42.927Z,33.60
2017-09-21T23:24:09.711Z,38.00
2017-09-21T23:26:36.481Z,38.97
2017-09-21T23:29:03.265Z,41.87
2017-09-21T23:31:30.070Z,35.03
2017-09-21T23:33:56.831Z,38.43
2017-09-21T23:36:23.605Z,40.77
2017-09-21T23:38:50.412Z,53.10
2017-09-21T23:41:17.194Z,43.27
2017-09-21T23:43:43.958Z,42.27
2017-09-21T23:46:11.066Z,41.30
2017-09-21T23:48:37.834Z,38.03
2017-09-21T23:51:04.602Z,46.03
2017-09-21T23:53:31.387Z,44.97
2017-09-21T23:55:58.155Z,47.63
2017-09-21T23:58:24.903Z,51.50
